sensor_id;sensor_type;location;lat;lon;timestamp;temperature;humidity
58153;DHT22;43967;51.634;5.566;2023-05-15T00:03:44;21.60;60.40
58153;DHT22;43967;51.634;5.566;2023-05-15T00:09:05;21.60;60.40
58153;DHT22;43967;51.634;5.566;2023-05-15T00:14:27;21.60;60.40
58153;DHT22;43967;51.634;5.566;2023-05-15T00:19:48;21.60;60.30
58153;DHT22;43967;51.634;5.566;2023-05-15T00:25:09;21.60;60.30
58153;DHT22;43967;51.634;5.566;2023-05-15T00:30:31;21.50;60.30
58153;DHT22;43967;51.634;5.566;2023-05-15T00:35:52;21.50;60.40
58153;DHT22;43967;51.634;5.566;2023-05-15T00:41:14;21.50;60.30
58153;DHT22;43967;51.634;5.566;2023-05-15T00:46:37;21.50;60.40
58153;DHT22;43967;51.634;5.566;2023-05-15T00:52:00;21.50;60.40
58153;DHT22;43967;51.634;5.566;2023-05-15T00:57:22;21.50;60.40
58153;DHT22;43967;51.634;5.566;2023-05-15T01:02:44;21.50;60.30
58153;DHT22;43967;51.634;5.566;2023-05-15T01:13:41;21.50;60.40
58153;DHT22;43967;51.634;5.566;2023-05-15T01:19:05;21.40;60.30
58153;DHT22;43967;51.634;5.566;2023-05-15T01:30:21;21.40;60.40
58153;DHT22;43967;51.634;5.566;2023-05-15T01:36:05;21.40;60.30
58153;DHT22;43967;51.634;5.566;2023-05-15T01:41:34;21.40;60.30
58153;DHT22;43967;51.634;5.566;2023-05-15T01:46:58;21.40;60.30
58153;DHT22;43967;51.634;5.566;2023-05-15T01:52:32;21.40;60.30
58153;DHT22;43967;51.634;5.566;2023-05-15T01:57:55;21.40;60.40
58153;DHT22;43967;51.634;5.566;2023-05-15T02:03:18;21.40;60.30
58153;DHT22;43967;51.634;5.566;2023-05-15T02:08:40;21.40;60.40
58153;DHT22;43967;51.634;5.566;2023-05-15T02:14:03;21.40;60.40
58153;DHT22;43967;51.634;5.566;2023-05-15T02:19:25;21.40;60.30
58153;DHT22;43967;51.634;5.566;2023-05-15T02:24:46;21.30;60.20
58153;DHT22;43967;51.634;5.566;2023-05-15T02:35:50;21.30;60.90
58153;DHT22;43967;51.634;5.566;2023-05-15T02:41:14;21.30;60.20
58153;DHT22;43967;51.634;5.566;2023-05-15T02:46:38;21.30;60.30
58153;DHT22;43967;51.634;5.566;2023-05-15T02:52:00;21.30;60.20
58153;DHT22;43967;51.634;5.566;2023-05-15T02:57:21;21.30;60.30
58153;DHT22;43967;51.634;5.566;2023-05-15T03:02:42;21.20;60.20
58153;DHT22;43967;51.634;5.566;2023-05-15T03:08:04;21.20;60.20
58153;DHT22;43967;51.634;5.566;2023-05-15T03:13:25;21.20;60.30
58153;DHT22;43967;51.634;5.566;2023-05-15T03:18:47;21.20;60.30
58153;DHT22;43967;51.634;5.566;2023-05-15T03:24:08;21.20;60.20
58153;DHT22;43967;51.634;5.566;2023-05-15T03:29:29;21.20;60.20
58153;DHT22;43967;51.634;5.566;2023-05-15T03:34:51;21.20;60.20
58153;DHT22;43967;51.634;5.566;2023-05-15T03:40:12;21.20;60.20
58153;DHT22;43967;51.634;5.566;2023-05-15T03:45:34;21.20;60.30
58153;DHT22;43967;51.634;5.566;2023-05-15T03:50:56;21.10;60.20
58153;DHT22;43967;51.634;5.566;2023-05-15T03:56:18;21.20;60.20
58153;DHT22;43967;51.634;5.566;2023-05-15T04:01:40;21.10;60.20
58153;DHT22;43967;51.634;5.566;2023-05-15T04:07:01;21.10;60.20
58153;DHT22;43967;51.634;5.566;2023-05-15T04:12:23;21.10;60.10
58153;DHT22;43967;51.634;5.566;2023-05-15T04:17:47;21.10;60.20
58153;DHT22;43967;51.634;5.566;2023-05-15T04:23:08;21.10;60.20
58153;DHT22;43967;51.634;5.566;2023-05-15T04:28:30;21.10;60.20
58153;DHT22;43967;51.634;5.566;2023-05-15T04:33:51;21.10;60.30
58153;DHT22;43967;51.634;5.566;2023-05-15T04:39:12;21.00;60.10
58153;DHT22;43967;51.634;5.566;2023-05-15T04:44:33;21.00;60.20
58153;DHT22;43967;51.634;5.566;2023-05-15T04:49:55;21.00;60.20
58153;DHT22;43967;51.634;5.566;2023-05-15T04:55:16;21.00;60.20
58153;DHT22;43967;51.634;5.566;2023-05-15T05:00:38;21.00;60.20
58153;DHT22;43967;51.634;5.566;2023-05-15T05:05:59;21.00;60.20
58153;DHT22;43967;51.634;5.566;2023-05-15T05:11:20;21.00;60.30
58153;DHT22;43967;51.634;5.566;2023-05-15T05:16:43;21.00;60.20
58153;DHT22;43967;51.634;5.566;2023-05-15T05:22:05;21.00;60.20
58153;DHT22;43967;51.634;5.566;2023-05-15T05:27:27;21.00;60.60
58153;DHT22;43967;51.634;5.566;2023-05-15T05:32:48;21.00;60.60
58153;DHT22;43967;51.634;5.566;2023-05-15T05:38:10;21.00;60.60
58153;DHT22;43967;51.634;5.566;2023-05-15T05:43:31;21.00;60.70
58153;DHT22;43967;51.634;5.566;2023-05-15T05:48:52;21.00;60.60
58153;DHT22;43967;51.634;5.566;2023-05-15T05:54:13;21.00;60.60
58153;DHT22;43967;51.634;5.566;2023-05-15T05:59:35;21.00;60.50
58153;DHT22;43967;51.634;5.566;2023-05-15T06:04:56;21.00;60.50
58153;DHT22;43967;51.634;5.566;2023-05-15T06:10:18;21.00;60.40
58153;DHT22;43967;51.634;5.566;2023-05-15T06:15:39;21.00;60.40
58153;DHT22;43967;51.634;5.566;2023-05-15T06:21:00;21.10;60.40
58153;DHT22;43967;51.634;5.566;2023-05-15T06:26:22;21.10;60.40
58153;DHT22;43967;51.634;5.566;2023-05-15T06:31:43;21.10;60.30
58153;DHT22;43967;51.634;5.566;2023-05-15T06:37:04;21.20;60.40
58153;DHT22;43967;51.634;5.566;2023-05-15T06:42:25;21.30;60.20
58153;DHT22;43967;51.634;5.566;2023-05-15T06:47:47;21.40;60.20
58153;DHT22;43967;51.634;5.566;2023-05-15T06:53:08;21.40;60.10
58153;DHT22;43967;51.634;5.566;2023-05-15T06:58:29;21.50;59.90
58153;DHT22;43967;51.634;5.566;2023-05-15T07:03:50;21.60;59.70
58153;DHT22;43967;51.634;5.566;2023-05-15T07:09:12;21.70;59.40
58153;DHT22;43967;51.634;5.566;2023-05-15T07:14:34;21.80;59.00
58153;DHT22;43967;51.634;5.566;2023-05-15T07:19:55;22.20;58.30
58153;DHT22;43967;51.634;5.566;2023-05-15T07:25:17;22.80;56.80
58153;DHT22;43967;51.634;5.566;2023-05-15T07:36:00;23.40;52.30
58153;DHT22;43967;51.634;5.566;2023-05-15T07:41:21;23.00;52.40
58153;DHT22;43967;51.634;5.566;2023-05-15T07:46:42;22.90;52.00
58153;DHT22;43967;51.634;5.566;2023-05-15T07:52:04;23.00;51.10
58153;DHT22;43967;51.634;5.566;2023-05-15T07:57:25;23.00;50.80
58153;DHT22;43967;51.634;5.566;2023-05-15T08:02:46;22.80;51.00
58153;DHT22;43967;51.634;5.566;2023-05-15T08:08:07;22.40;51.50
58153;DHT22;43967;51.634;5.566;2023-05-15T08:13:29;22.20;52.30
58153;DHT22;43967;51.634;5.566;2023-05-15T08:18:50;22.00;52.80
58153;DHT22;43967;51.634;5.566;2023-05-15T08:24:11;21.90;53.10
58153;DHT22;43967;51.634;5.566;2023-05-15T08:29:34;21.90;53.30
58153;DHT22;43967;51.634;5.566;2023-05-15T08:34:55;21.80;53.20
58153;DHT22;43967;51.634;5.566;2023-05-15T08:40:16;21.70;53.50
58153;DHT22;43967;51.634;5.566;2023-05-15T08:45:38;21.70;53.70
58153;DHT22;43967;51.634;5.566;2023-05-15T08:50:59;21.70;53.70
58153;DHT22;43967;51.634;5.566;2023-05-15T08:56:20;21.60;54.30
58153;DHT22;43967;51.634;5.566;2023-05-15T09:01:42;21.70;54.80
58153;DHT22;43967;51.634;5.566;2023-05-15T09:07:04;21.60;55.00
58153;DHT22;43967;51.634;5.566;2023-05-15T09:12:26;21.60;55.50
58153;DHT22;43967;51.634;5.566;2023-05-15T09:17:48;21.60;55.20
58153;DHT22;43967;51.634;5.566;2023-05-15T09:23:25;21.60;57.30
58153;DHT22;43967;51.634;5.566;2023-05-15T09:28:47;21.60;60.90
58153;DHT22;43967;51.634;5.566;2023-05-15T09:34:08;21.60;58.10
58153;DHT22;43967;51.634;5.566;2023-05-15T09:39:30;21.60;57.30
58153;DHT22;43967;51.634;5.566;2023-05-15T09:44:51;21.50;56.60
58153;DHT22;43967;51.634;5.566;2023-05-15T09:50:19;21.50;55.70
58153;DHT22;43967;51.634;5.566;2023-05-15T09:55:41;21.50;55.70
58153;DHT22;43967;51.634;5.566;2023-05-15T10:01:09;21.80;55.20
58153;DHT22;43967;51.634;5.566;2023-05-15T10:06:38;21.90;54.80
58153;DHT22;43967;51.634;5.566;2023-05-15T10:11:59;21.90;54.70
58153;DHT22;43967;51.634;5.566;2023-05-15T10:17:21;21.90;54.60
58153;DHT22;43967;51.634;5.566;2023-05-15T10:22:50;21.90;54.70
58153;DHT22;43967;51.634;5.566;2023-05-15T10:28:16;21.90;55.00
58153;DHT22;43967;51.634;5.566;2023-05-15T10:33:39;21.90;55.10
58153;DHT22;43967;51.634;5.566;2023-05-15T10:39:03;21.90;55.40
58153;DHT22;43967;51.634;5.566;2023-05-15T10:44:25;21.90;55.50
58153;DHT22;43967;51.634;5.566;2023-05-15T10:49:46;21.90;55.70
58153;DHT22;43967;51.634;5.566;2023-05-15T10:55:12;21.90;55.70
58153;DHT22;43967;51.634;5.566;2023-05-15T11:00:41;21.90;56.20
58153;DHT22;43967;51.634;5.566;2023-05-15T11:06:09;21.90;56.00
58153;DHT22;43967;51.634;5.566;2023-05-15T11:11:56;21.90;56.10
58153;DHT22;43967;51.634;5.566;2023-05-15T11:17:18;21.80;56.10
58153;DHT22;43967;51.634;5.566;2023-05-15T11:22:39;21.90;56.80
58153;DHT22;43967;51.634;5.566;2023-05-15T11:28:03;21.80;56.70
58153;DHT22;43967;51.634;5.566;2023-05-15T11:33:28;21.80;56.70
58153;DHT22;43967;51.634;5.566;2023-05-15T11:38:49;21.90;56.70
58153;DHT22;43967;51.634;5.566;2023-05-15T11:44:19;21.80;56.50
58153;DHT22;43967;51.634;5.566;2023-05-15T11:49:41;21.80;56.60
58153;DHT22;43967;51.634;5.566;2023-05-15T11:55:03;21.80;56.80
58153;DHT22;43967;51.634;5.566;2023-05-15T12:00:25;21.80;56.90
58153;DHT22;43967;51.634;5.566;2023-05-15T12:05:46;21.70;56.90
58153;DHT22;43967;51.634;5.566;2023-05-15T12:11:08;21.70;56.90
58153;DHT22;43967;51.634;5.566;2023-05-15T12:16:29;21.70;57.20
58153;DHT22;43967;51.634;5.566;2023-05-15T12:21:50;21.70;57.50
58153;DHT22;43967;51.634;5.566;2023-05-15T12:27:12;21.70;57.50
58153;DHT22;43967;51.634;5.566;2023-05-15T12:32:35;21.70;57.60
58153;DHT22;43967;51.634;5.566;2023-05-15T12:37:57;21.70;57.70
58153;DHT22;43967;51.634;5.566;2023-05-15T12:43:18;21.80;57.80
58153;DHT22;43967;51.634;5.566;2023-05-15T12:48:40;21.90;57.70
58153;DHT22;43967;51.634;5.566;2023-05-15T12:54:05;21.90;57.70
58153;DHT22;43967;51.634;5.566;2023-05-15T12:59:26;22.00;57.50
58153;DHT22;43967;51.634;5.566;2023-05-15T13:04:51;22.10;57.30
58153;DHT22;43967;51.634;5.566;2023-05-15T13:10:14;22.20;57.20
58153;DHT22;43967;51.634;5.566;2023-05-15T13:15:37;22.20;57.00
58153;DHT22;43967;51.634;5.566;2023-05-15T13:20:59;22.20;57.00
58153;DHT22;43967;51.634;5.566;2023-05-15T13:26:20;22.20;57.10
58153;DHT22;43967;51.634;5.566;2023-05-15T13:31:42;22.20;57.20
58153;DHT22;43967;51.634;5.566;2023-05-15T13:37:03;22.20;57.20
58153;DHT22;43967;51.634;5.566;2023-05-15T13:42:25;22.10;57.40
58153;DHT22;43967;51.634;5.566;2023-05-15T13:47:46;22.00;57.50
58153;DHT22;43967;51.634;5.566;2023-05-15T13:53:08;22.00;57.80
58153;DHT22;43967;51.634;5.566;2023-05-15T13:58:29;22.00;57.90
58153;DHT22;43967;51.634;5.566;2023-05-15T14:03:50;22.00;58.00
58153;DHT22;43967;51.634;5.566;2023-05-15T14:09:11;22.00;58.30
58153;DHT22;43967;51.634;5.566;2023-05-15T14:14:33;21.90;58.30
58153;DHT22;43967;51.634;5.566;2023-05-15T14:19:54;21.90;58.40
58153;DHT22;43967;51.634;5.566;2023-05-15T14:25:15;21.90;58.60
58153;DHT22;43967;51.634;5.566;2023-05-15T14:30:36;21.90;58.70
58153;DHT22;43967;51.634;5.566;2023-05-15T14:35:58;21.90;58.80
58153;DHT22;43967;51.634;5.566;2023-05-15T14:41:19;21.90;59.00
58153;DHT22;43967;51.634;5.566;2023-05-15T14:46:41;21.90;59.10
58153;DHT22;43967;51.634;5.566;2023-05-15T14:52:04;21.90;59.10
58153;DHT22;43967;51.634;5.566;2023-05-15T14:57:25;21.90;59.30
58153;DHT22;43967;51.634;5.566;2023-05-15T15:02:46;21.90;59.50
58153;DHT22;43967;51.634;5.566;2023-05-15T15:08:08;22.00;59.50
58153;DHT22;43967;51.634;5.566;2023-05-15T15:13:30;22.00;59.60
58153;DHT22;43967;51.634;5.566;2023-05-15T15:18:51;22.00;59.70
58153;DHT22;43967;51.634;5.566;2023-05-15T15:24:13;21.90;59.60
58153;DHT22;43967;51.634;5.566;2023-05-15T15:29:34;22.00;58.20
58153;DHT22;43967;51.634;5.566;2023-05-15T15:34:55;21.90;57.30
58153;DHT22;43967;51.634;5.566;2023-05-15T15:40:17;21.90;56.80
58153;DHT22;43967;51.634;5.566;2023-05-15T15:45:38;21.80;56.40
58153;DHT22;43967;51.634;5.566;2023-05-15T15:50:59;21.80;56.30
58153;DHT22;43967;51.634;5.566;2023-05-15T15:56:20;21.80;56.20
58153;DHT22;43967;51.634;5.566;2023-05-15T16:01:42;21.80;56.30
58153;DHT22;43967;51.634;5.566;2023-05-15T16:07:04;21.70;56.10
58153;DHT22;43967;51.634;5.566;2023-05-15T16:12:26;21.70;55.80
58153;DHT22;43967;51.634;5.566;2023-05-15T16:17:50;21.70;56.80
58153;DHT22;43967;51.634;5.566;2023-05-15T16:23:12;21.70;60.90
58153;DHT22;43967;51.634;5.566;2023-05-15T16:28:34;21.70;62.00
58153;DHT22;43967;51.634;5.566;2023-05-15T16:33:57;21.70;62.50
58153;DHT22;43967;51.634;5.566;2023-05-15T16:39:19;21.70;62.30
58153;DHT22;43967;51.634;5.566;2023-05-15T16:44:41;21.80;62.70
58153;DHT22;43967;51.634;5.566;2023-05-15T16:50:05;21.80;62.70
58153;DHT22;43967;51.634;5.566;2023-05-15T16:55:26;21.80;62.50
58153;DHT22;43967;51.634;5.566;2023-05-15T17:00:48;21.80;62.50
58153;DHT22;43967;51.634;5.566;2023-05-15T17:06:09;21.80;62.40
58153;DHT22;43967;51.634;5.566;2023-05-15T17:11:30;21.80;62.20
58153;DHT22;43967;51.634;5.566;2023-05-15T17:16:52;21.80;62.30
58153;DHT22;43967;51.634;5.566;2023-05-15T17:22:13;21.80;62.30
58153;DHT22;43967;51.634;5.566;2023-05-15T17:27:35;21.80;63.00
58153;DHT22;43967;51.634;5.566;2023-05-15T17:32:56;21.80;62.40
58153;DHT22;43967;51.634;5.566;2023-05-15T17:38:18;21.80;62.30
58153;DHT22;43967;51.634;5.566;2023-05-15T17:43:39;21.80;62.30
58153;DHT22;43967;51.634;5.566;2023-05-15T17:49:01;21.80;62.50
58153;DHT22;43967;51.634;5.566;2023-05-15T17:54:22;21.80;62.50
58153;DHT22;43967;51.634;5.566;2023-05-15T17:59:44;21.80;62.50
58153;DHT22;43967;51.634;5.566;2023-05-15T18:05:05;21.80;62.50
58153;DHT22;43967;51.634;5.566;2023-05-15T18:10:33;21.80;62.50
58153;DHT22;43967;51.634;5.566;2023-05-15T18:15:55;21.80;62.50
58153;DHT22;43967;51.634;5.566;2023-05-15T18:21:17;21.70;62.50
58153;DHT22;43967;51.634;5.566;2023-05-15T18:26:38;21.70;62.50
58153;DHT22;43967;51.634;5.566;2023-05-15T18:31:59;21.70;62.40
58153;DHT22;43967;51.634;5.566;2023-05-15T18:37:21;21.70;62.40
58153;DHT22;43967;51.634;5.566;2023-05-15T18:42:42;21.70;62.30
58153;DHT22;43967;51.634;5.566;2023-05-15T18:48:04;21.70;62.30
58153;DHT22;43967;51.634;5.566;2023-05-15T18:53:26;21.70;62.30
58153;DHT22;43967;51.634;5.566;2023-05-15T18:58:47;21.70;62.50
58153;DHT22;43967;51.634;5.566;2023-05-15T19:04:09;21.70;62.50
58153;DHT22;43967;51.634;5.566;2023-05-15T19:09:30;21.70;62.50
58153;DHT22;43967;51.634;5.566;2023-05-15T19:14:52;21.70;62.60
58153;DHT22;43967;51.634;5.566;2023-05-15T19:20:13;21.70;62.70
58153;DHT22;43967;51.634;5.566;2023-05-15T19:25:34;21.70;62.70
58153;DHT22;43967;51.634;5.566;2023-05-15T19:30:56;21.70;62.80
58153;DHT22;43967;51.634;5.566;2023-05-15T19:36:19;21.70;62.80
58153;DHT22;43967;51.634;5.566;2023-05-15T19:41:41;21.70;62.70
58153;DHT22;43967;51.634;5.566;2023-05-15T19:47:02;21.60;62.70
58153;DHT22;43967;51.634;5.566;2023-05-15T19:52:25;21.70;62.80
58153;DHT22;43967;51.634;5.566;2023-05-15T19:57:48;21.60;62.70
58153;DHT22;43967;51.634;5.566;2023-05-15T20:03:09;21.60;62.70
58153;DHT22;43967;51.634;5.566;2023-05-15T20:08:31;21.70;62.70
58153;DHT22;43967;51.634;5.566;2023-05-15T20:13:52;21.60;62.60
58153;DHT22;43967;51.634;5.566;2023-05-15T20:19:16;21.60;62.70
58153;DHT22;43967;51.634;5.566;2023-05-15T20:24:39;21.60;62.60
58153;DHT22;43967;51.634;5.566;2023-05-15T20:30:01;21.60;62.40
58153;DHT22;43967;51.634;5.566;2023-05-15T20:35:23;21.60;62.30
58153;DHT22;43967;51.634;5.566;2023-05-15T20:40:44;21.60;62.20
58153;DHT22;43967;51.634;5.566;2023-05-15T20:46:08;21.60;62.00
58153;DHT22;43967;51.634;5.566;2023-05-15T20:51:30;21.60;62.00
58153;DHT22;43967;51.634;5.566;2023-05-15T20:56:51;21.60;61.80
58153;DHT22;43967;51.634;5.566;2023-05-15T21:02:12;21.60;61.80
58153;DHT22;43967;51.634;5.566;2023-05-15T21:07:34;21.50;61.60
58153;DHT22;43967;51.634;5.566;2023-05-15T21:12:56;21.50;61.60
58153;DHT22;43967;51.634;5.566;2023-05-15T21:18:17;21.50;61.50
58153;DHT22;43967;51.634;5.566;2023-05-15T21:23:38;21.50;61.40
58153;DHT22;43967;51.634;5.566;2023-05-15T21:29:00;21.50;61.40
58153;DHT22;43967;51.634;5.566;2023-05-15T21:34:21;21.50;61.30
58153;DHT22;43967;51.634;5.566;2023-05-15T21:39:42;21.50;61.30
58153;DHT22;43967;51.634;5.566;2023-05-15T21:45:04;21.50;61.10
58153;DHT22;43967;51.634;5.566;2023-05-15T21:50:25;21.40;60.90
58153;DHT22;43967;51.634;5.566;2023-05-15T21:55:47;21.40;60.80
58153;DHT22;43967;51.634;5.566;2023-05-15T22:01:08;21.40;60.70
58153;DHT22;43967;51.634;5.566;2023-05-15T22:06:29;21.40;60.60
58153;DHT22;43967;51.634;5.566;2023-05-15T22:11:50;21.40;60.60
58153;DHT22;43967;51.634;5.566;2023-05-15T22:17:12;21.40;60.50
58153;DHT22;43967;51.634;5.566;2023-05-15T22:22:34;21.40;60.50
58153;DHT22;43967;51.634;5.566;2023-05-15T22:27:55;21.40;60.40
58153;DHT22;43967;51.634;5.566;2023-05-15T22:33:16;21.30;60.30
58153;DHT22;43967;51.634;5.566;2023-05-15T22:38:38;21.30;60.30
58153;DHT22;43967;51.634;5.566;2023-05-15T22:44:00;21.30;60.30
58153;DHT22;43967;51.634;5.566;2023-05-15T22:49:21;21.30;60.10
58153;DHT22;43967;51.634;5.566;2023-05-15T22:54:43;21.30;60.10
58153;DHT22;43967;51.634;5.566;2023-05-15T23:00:05;21.30;60.10
58153;DHT22;43967;51.634;5.566;2023-05-15T23:05:26;21.30;60.00
58153;DHT22;43967;51.634;5.566;2023-05-15T23:10:47;21.30;60.00
58153;DHT22;43967;51.634;5.566;2023-05-15T23:16:08;21.20;60.00
58153;DHT22;43967;51.634;5.566;2023-05-15T23:21:30;21.20;59.90
58153;DHT22;43967;51.634;5.566;2023-05-15T23:26:52;21.20;59.90
58153;DHT22;43967;51.634;5.566;2023-05-15T23:32:13;21.20;59.80
58153;DHT22;43967;51.634;5.566;2023-05-15T23:37:36;21.20;59.80
58153;DHT22;43967;51.634;5.566;2023-05-15T23:42:57;21.20;59.80
58153;DHT22;43967;51.634;5.566;2023-05-15T23:48:18;21.20;59.70
58153;DHT22;43967;51.634;5.566;2023-05-15T23:53:40;21.20;59.70
58153;DHT22;43967;51.634;5.566;2023-05-15T23:59:01;21.10;59.60
